Time,TemperatureF,DewpointF,PressureIn,WindDirection,WindDirectionDegrees,WindSpeedMPH,WindSpeedGustMPH,Humidity,HourlyPrecipIn,Conditions,Clouds,dailyrainin,SoftwareType,DateUTC
2013-04-09 00:00:00,43.7,36.6,29.86,North,0,0.0,0.0,76,0.00,,,0.00,WUHU21623XXSP,2013-04-09 07:00:00,
2013-04-09 00:05:00,43.5,36.8,29.87,North,0,0.0,0.0,77,0.00,,,0.00,WUHU21623XXSP,2013-04-09 07:05:00,
2013-04-09 00:10:00,43.3,36.6,29.86,North,0,0.0,0.0,77,0.00,,,0.00,WUHU21623XXSP,2013-04-09 07:10:00,
2013-04-09 00:15:00,43.3,36.6,29.86,North,0,0.0,0.0,77,0.00,,,0.00,WUHU21623XXSP,2013-04-09 07:15:00,
2013-04-09 00:20:00,43.2,36.4,29.87,North,0,0.0,0.0,77,0.00,,,0.00,WUHU21623XXSP,2013-04-09 07:20:00,
2013-04-09 00:25:00,43.0,36.2,29.87,North,0,0.0,0.0,77,0.00,,,0.00,WUHU21623XXSP,2013-04-09 07:25:00,
2013-04-09 00:30:00,43.0,36.6,29.86,North,0,0.0,0.0,78,0.00,,,0.00,WUHU21623XXSP,2013-04-09 07:30:00,
2013-04-09 00:35:00,43.0,36.6,29.87,North,0,0.0,0.0,78,0.00,,,0.00,WUHU21623XXSP,2013-04-09 07:35:00,
2013-04-09 00:40:00,42.6,36.2,29.87,North,0,0.0,0.0,78,0.00,,,0.00,WUHU21623XXSP,2013-04-09 07:40:00,
2013-04-09 00:45:00,43.0,36.6,29.87,North,0,0.0,0.0,78,0.00,,,0.00,WUHU21623XXSP,2013-04-09 07:45:00,
2013-04-09 00:50:00,43.0,36.6,29.88,North,0,0.0,0.0,78,0.00,,,0.00,WUHU21623XXSP,2013-04-09 07:50:00,
2013-04-09 00:55:00,43.2,36.7,29.87,North,0,0.0,0.0,78,0.00,,,0.00,WUHU21623XXSP,2013-04-09 07:55:00,
2013-04-09 01:00:00,43.2,36.7,29.87,North,0,0.0,0.0,78,0.00,,,0.00,WUHU21623XXSP,2013-04-09 08:00:00,
2013-04-09 01:05:00,43.5,37.1,29.87,North,0,0.0,0.0,78,0.00,,,0.00,WUHU21623XXSP,2013-04-09 08:05:00,
2013-04-09 01:10:00,43.9,37.4,29.87,North,0,0.0,0.0,78,0.00,,,0.00,WUHU21623XXSP,2013-04-09 08:10:00,
2013-04-09 01:15:00,43.5,37.1,29.87,North,0,0.0,0.0,78,0.00,,,0.00,WUHU21623XXSP,2013-04-09 08:15:00,
2013-04-09 01:20:00,43.3,36.9,29.87,North,0,0.0,0.0,78,0.00,,,0.00,WUHU21623XXSP,2013-04-09 08:20:00,
2013-04-09 01:25:00,43.0,36.6,29.86,North,0,0.0,0.0,78,0.00,,,0.00,WUHU21623XXSP,2013-04-09 08:25:00,
2013-04-09 01:30:00,42.6,36.2,29.87,North,0,0.0,0.0,78,0.00,,,0.00,WUHU21623XXSP,2013-04-09 08:30:00,
2013-04-09 01:35:00,42.6,36.2,29.87,North,0,0.0,0.0,78,0.00,,,0.00,WUHU21623XXSP,2013-04-09 08:35:00,
2013-04-09 01:40:00,42.6,36.5,29.87,North,0,0.0,0.0,79,0.00,,,0.00,WUHU21623XXSP,2013-04-09 08:40:00,
2013-04-09 01:45:00,42.6,36.5,29.87,North,0,0.0,0.0,79,0.00,,,0.00,WUHU21623XXSP,2013-04-09 08:45:00,
2013-04-09 01:50:00,42.6,36.5,29.87,North,0,0.0,0.0,79,0.00,,,0.00,WUHU21623XXSP,2013-04-09 08:50:00,
2013-04-09 01:55:00,42.6,36.5,29.87,North,0,0.0,0.0,79,0.00,,,0.00,WUHU21623XXSP,2013-04-09 08:55:00,
2013-04-09 02:00:00,42.4,36.4,29.87,North,0,0.0,0.0,79,0.00,,,0.00,WUHU21623XXSP,2013-04-09 09:00:00,
2013-04-09 02:05:00,43.0,36.9,29.87,North,0,0.0,0.0,79,0.00,,,0.00,WUHU21623XXSP,2013-04-09 09:05:00,
2013-04-09 02:10:00,43.0,36.9,29.87,North,0,0.0,0.0,79,0.00,,,0.00,WUHU21623XXSP,2013-04-09 09:10:00,
2013-04-09 02:15:00,43.2,37.1,29.87,North,0,0.0,0.0,79,0.00,,,0.00,WUHU21623XXSP,2013-04-09 09:15:00,
2013-04-09 02:21:00,43.0,36.9,29.87,North,0,0.0,0.0,79,0.00,,,0.00,WUHU21623XXSP,2013-04-09 09:21:00,
2013-04-09 02:26:00,43.3,37.2,29.87,North,0,0.0,0.0,79,0.00,,,0.00,WUHU21623XXSP,2013-04-09 09:26:00,
2013-04-09 02:31:00,43.2,37.1,29.86,North,0,0.0,0.0,79,0.00,,,0.00,WUHU21623XXSP,2013-04-09 09:31:00,
2013-04-09 02:36:00,42.6,36.5,29.86,North,0,0.0,0.0,79,0.00,,,0.00,WUHU21623XXSP,2013-04-09 09:36:00,
2013-04-09 02:41:00,42.6,36.5,29.86,North,0,0.0,0.0,79,0.00,,,0.00,WUHU21623XXSP,2013-04-09 09:41:00,
2013-04-09 02:46:00,42.4,36.4,29.86,North,0,0.0,0.0,79,0.00,,,0.00,WUHU21623XXSP,2013-04-09 09:46:00,
2013-04-09 02:51:00,42.1,36.4,29.87,North,0,0.0,0.0,79,0.00,,,0.00,WUHU21623XXSP,2013-04-09 09:51:00,
2013-04-09 02:56:00,41.7,35.6,29.87,North,0,0.0,0.0,79,0.00,,,0.00,WUHU21623XXSP,2013-04-09 09:56:00,
2013-04-09 03:01:00,41.5,35.5,29.87,North,0,0.0,0.0,79,0.00,,,0.00,WUHU21623XXSP,2013-04-09 10:01:00,
2013-04-09 03:06:00,41.5,35.5,29.86,North,0,0.0,0.0,79,0.00,,,0.00,WUHU21623XXSP,2013-04-09 10:06:00,
2013-04-09 03:11:00,41.4,35.3,29.86,North,0,0.0,0.0,79,0.00,,,0.00,WUHU21623XXSP,2013-04-09 10:11:00,
2013-04-09 03:16:00,41.0,34.9,29.87,North,0,0.0,0.0,79,0.00,,,0.00,WUHU21623XXSP,2013-04-09 10:16:00,
2013-04-09 03:22:00,40.8,34.7,29.87,North,0,0.0,0.0,79,0.00,,,0.00,WUHU21623XXSP,2013-04-09 10:22:00,
2013-04-09 03:27:00,40.6,34.6,29.87,North,0,0.0,0.0,79,0.00,,,0.00,WUHU21623XXSP,2013-04-09 10:27:00,
2013-04-09 03:32:00,40.5,34.8,29.87,North,0,0.0,0.0,80,0.00,,,0.00,WUHU21623XXSP,2013-04-09 10:32:00,
2013-04-09 03:37:00,40.5,34.8,29.87,North,0,0.0,0.0,80,0.00,,,0.00,WUHU21623XXSP,2013-04-09 10:37:00,
2013-04-09 03:42:00,40.6,34.9,29.87,North,0,0.0,0.0,80,0.00,,,0.00,WUHU21623XXSP,2013-04-09 10:42:00,
2013-04-09 03:47:00,40.8,35.1,29.87,North,0,0.0,0.0,80,0.00,,,0.00,WUHU21623XXSP,2013-04-09 10:47:00,
2013-04-09 03:52:00,40.6,34.9,29.87,North,0,0.0,0.0,80,0.00,,,0.00,WUHU21623XXSP,2013-04-09 10:52:00,
2013-04-09 03:57:00,40.6,34.9,29.88,North,0,0.0,0.0,80,0.00,,,0.00,WUHU21623XXSP,2013-04-09 10:57:00,
2013-04-09 04:02:00,40.5,34.8,29.88,North,0,0.0,0.0,80,0.00,,,0.00,WUHU21623XXSP,2013-04-09 11:02:00,
2013-04-09 04:07:00,40.1,34.4,29.88,North,0,0.0,0.0,80,0.00,,,0.00,WUHU21623XXSP,2013-04-09 11:07:00,
2013-04-09 04:12:00,40.1,34.4,29.87,North,0,0.0,0.0,80,0.00,,,0.00,WUHU21623XXSP,2013-04-09 11:12:00,
2013-04-09 04:17:00,39.7,34.3,29.87,North,0,0.0,0.0,80,0.00,,,0.00,WUHU21623XXSP,2013-04-09 11:17:00,
2013-04-09 04:22:00,39.7,34.1,29.88,North,0,0.0,0.0,80,0.00,,,0.00,WUHU21623XXSP,2013-04-09 11:22:00,
2013-04-09 04:27:00,39.4,33.8,29.88,North,0,0.0,0.0,80,0.00,,,0.00,WUHU21623XXSP,2013-04-09 11:27:00,
2013-04-09 04:32:00,39.4,33.8,29.87,North,0,0.0,0.0,80,0.00,,,0.00,WUHU21623XXSP,2013-04-09 11:32:00,
2013-04-09 04:37:00,39.4,33.8,29.88,North,0,0.0,0.0,80,0.00,,,0.00,WUHU21623XXSP,2013-04-09 11:37:00,
2013-04-09 04:42:00,39.4,33.8,29.88,North,0,0.0,0.0,80,0.00,,,0.00,WUHU21623XXSP,2013-04-09 11:42:00,
2013-04-09 04:47:00,39.4,33.8,29.88,North,0,0.0,0.0,80,0.00,,,0.00,WUHU21623XXSP,2013-04-09 11:47:00,
2013-04-09 04:52:00,39.4,33.8,29.88,North,0,0.0,0.0,80,0.00,,,0.00,WUHU21623XXSP,2013-04-09 11:52:00,
2013-04-09 04:57:00,39.4,33.8,29.88,North,0,0.0,0.0,80,0.00,,,0.00,WUHU21623XXSP,2013-04-09 11:57:00,
2013-04-09 05:02:00,39.4,33.8,29.89,North,0,0.0,0.0,80,0.00,,,0.00,WUHU21623XXSP,2013-04-09 12:02:00,
2013-04-09 05:07:00,39.4,33.8,29.89,North,0,0.0,0.0,80,0.00,,,0.00,WUHU21623XXSP,2013-04-09 12:07:00,
2013-04-09 05:12:00,39.7,34.1,29.89,North,0,0.0,0.0,80,0.00,,,0.00,WUHU21623XXSP,2013-04-09 12:12:00,
2013-04-09 05:17:00,39.6,33.9,29.89,North,0,0.0,0.0,80,0.00,,,0.00,WUHU21623XXSP,2013-04-09 12:17:00,
2013-04-09 05:22:00,39.9,34.3,29.90,North,0,0.0,0.0,80,0.00,,,0.00,WUHU21623XXSP,2013-04-09 12:22:00,
2013-04-09 05:27:00,40.3,34.6,29.89,North,0,0.0,0.0,80,0.00,,,0.00,WUHU21623XXSP,2013-04-09 12:27:00,
2013-04-09 05:32:00,40.3,34.8,29.89,North,0,0.0,0.0,79,0.00,,,0.00,WUHU21623XXSP,2013-04-09 12:32:00,
2013-04-09 05:37:00,40.5,34.4,29.89,North,0,0.0,0.0,79,0.00,,,0.00,WUHU21623XXSP,2013-04-09 12:37:00,
2013-04-09 05:42:00,40.8,34.6,29.89,North,0,0.0,0.0,79,0.00,,,0.00,WUHU21623XXSP,2013-04-09 12:42:00,
2013-04-09 05:47:00,41.2,35.1,29.90,North,0,0.0,0.0,79,0.00,,,0.00,WUHU21623XXSP,2013-04-09 12:47:00,
2013-04-09 05:52:00,41.2,34.8,29.90,North,0,0.0,0.0,78,0.00,,,0.00,WUHU21623XXSP,2013-04-09 12:52:00,
2013-04-09 05:57:00,41.5,35.0,29.91,North,0,0.0,0.0,77,0.00,,,0.00,WUHU21623XXSP,2013-04-09 12:57:00,
2013-04-09 06:02:00,41.7,35.0,29.91,North,0,0.0,0.0,77,0.00,,,0.00,WUHU21623XXSP,2013-04-09 13:02:00,
2013-04-09 06:07:00,42.1,34.8,29.91,North,0,0.0,0.0,75,0.00,,,0.00,WUHU21623XXSP,2013-04-09 13:07:00,
2013-04-09 06:12:00,42.6,34.6,29.91,North,0,0.0,0.0,73,0.00,,,0.00,WUHU21623XXSP,2013-04-09 13:12:00,
2013-04-09 06:17:00,43.2,33.7,29.91,North,0,0.0,0.0,69,0.00,,,0.00,WUHU21623XXSP,2013-04-09 13:17:00,
2013-04-09 06:22:00,43.7,32.3,29.91,North,0,0.0,0.0,64,0.00,,,0.00,WUHU21623XXSP,2013-04-09 13:22:00,
2013-04-09 06:27:00,44.1,32.2,29.91,North,0,0.0,0.0,63,0.00,,,0.00,WUHU21623XXSP,2013-04-09 13:27:00,
2013-04-09 06:32:00,44.1,31.9,29.91,North,0,0.0,0.0,62,0.00,,,0.00,WUHU21623XXSP,2013-04-09 13:32:00,
2013-04-09 06:37:00,44.1,31.3,29.91,North,0,0.0,0.0,59,0.00,,,0.00,WUHU21623XXSP,2013-04-09 13:37:00,
2013-04-09 06:42:00,44.4,30.4,29.90,North,0,0.0,0.0,58,0.00,,,0.00,WUHU21623XXSP,2013-04-09 13:42:00,
2013-04-09 06:48:00,45.0,29.7,29.91,North,0,0.0,0.0,55,0.00,,,0.00,WUHU21623XXSP,2013-04-09 13:48:00,
2013-04-09 06:53:00,45.1,29.7,29.91,North,0,0.0,0.0,54,0.00,,,0.00,WUHU21623XXSP,2013-04-09 13:53:00,
2013-04-09 06:58:00,45.1,29.4,29.91,North,0,0.0,0.0,54,0.00,,,0.00,WUHU21623XXSP,2013-04-09 13:58:00,
2013-04-09 07:03:00,45.1,29.4,29.91,North,0,0.0,0.0,54,0.00,,,0.00,WUHU21623XXSP,2013-04-09 14:03:00,
2013-04-09 07:08:00,45.1,29.0,29.91,North,0,0.0,0.0,53,0.00,,,0.00,WUHU21623XXSP,2013-04-09 14:08:00,
2013-04-09 07:13:00,45.3,28.7,29.91,North,0,0.0,0.0,52,0.00,,,0.00,WUHU21623XXSP,2013-04-09 14:13:00,
2013-04-09 07:18:00,45.7,29.0,29.91,North,0,0.0,0.0,52,0.00,,,0.00,WUHU21623XXSP,2013-04-09 14:18:00,
2013-04-09 07:23:00,45.7,29.0,29.91,North,0,0.0,0.0,52,0.00,,,0.00,WUHU21623XXSP,2013-04-09 14:23:00,
2013-04-09 07:28:00,45.7,28.6,29.91,North,0,0.0,0.0,51,0.00,,,0.00,WUHU21623XXSP,2013-04-09 14:28:00,
2013-04-09 07:33:00,46.2,28.6,29.91,North,0,0.0,0.0,50,0.00,,,0.00,WUHU21623XXSP,2013-04-09 14:33:00,
2013-04-09 07:38:00,46.4,28.8,29.91,North,0,0.0,0.0,50,0.00,,,0.00,WUHU21623XXSP,2013-04-09 14:38:00,
2013-04-09 07:43:00,46.6,28.9,29.91,North,0,0.0,0.0,50,0.00,,,0.00,WUHU21623XXSP,2013-04-09 14:43:00,
2013-04-09 07:48:00,46.8,29.1,29.91,North,0,0.0,0.0,50,0.00,,,0.00,WUHU21623XXSP,2013-04-09 14:48:00,
2013-04-09 07:53:00,46.9,29.2,29.91,North,0,0.0,0.0,50,0.00,,,0.00,WUHU21623XXSP,2013-04-09 14:53:00,
2013-04-09 07:58:00,47.1,28.9,29.91,North,0,0.0,0.0,49,0.00,,,0.00,WUHU21623XXSP,2013-04-09 14:58:00,
2013-04-09 08:03:00,47.5,29.2,29.92,North,0,0.0,0.0,49,0.00,,,0.00,WUHU21623XXSP,2013-04-09 15:03:00,
2013-04-09 08:08:00,47.8,28.8,29.92,North,0,0.0,0.0,48,0.00,,,0.00,WUHU21623XXSP,2013-04-09 15:08:00,
2013-04-09 08:13:00,48.7,29.8,29.91,North,0,0.0,0.0,48,0.00,,,0.00,WUHU21623XXSP,2013-04-09 15:13:00,
2013-04-09 08:18:00,49.1,30.0,29.91,North,0,0.0,0.0,48,0.00,,,0.00,WUHU21623XXSP,2013-04-09 15:18:00,
2013-04-09 08:23:00,49.6,29.6,29.91,North,0,0.0,0.0,46,0.00,,,0.00,WUHU21623XXSP,2013-04-09 15:23:00,
2013-04-09 08:28:00,50.2,29.6,29.92,North,0,0.0,0.0,45,0.00,,,0.00,WUHU21623XXSP,2013-04-09 15:28:00,
2013-04-09 08:33:00,50.7,29.2,29.92,North,0,0.0,0.0,44,0.00,,,0.00,WUHU21623XXSP,2013-04-09 15:33:00,
2013-04-09 08:38:00,51.4,28.5,29.92,North,0,0.0,0.0,41,0.00,,,0.00,WUHU21623XXSP,2013-04-09 15:38:00,
2013-04-09 08:43:00,52.3,29.1,29.92,North,0,0.0,0.0,41,0.00,,,0.00,WUHU21623XXSP,2013-04-09 15:43:00,
2013-04-09 08:48:00,52.5,28.2,29.92,North,0,0.0,0.0,39,0.00,,,0.00,WUHU21623XXSP,2013-04-09 15:48:00,
2013-04-09 08:53:00,52.9,28.5,29.92,North,0,0.0,0.0,39,0.00,,,0.00,WUHU21623XXSP,2013-04-09 15:53:00,
2013-04-09 08:58:00,53.8,27.6,29.92,North,0,0.0,0.0,37,0.00,,,0.00,WUHU21623XXSP,2013-04-09 15:58:00,
2013-04-09 09:03:00,54.3,29.1,29.92,North,0,0.0,0.0,38,0.00,,,0.00,WUHU21623XXSP,2013-04-09 16:03:00,
2013-04-09 09:08:00,55.2,28.5,29.92,North,0,0.0,0.0,36,0.00,,,0.00,WUHU21623XXSP,2013-04-09 16:08:00,
2013-04-09 09:13:00,55.6,28.1,29.92,North,0,0.0,0.0,35,0.00,,,0.00,WUHU21623XXSP,2013-04-09 16:13:00,
2013-04-09 09:18:00,55.6,26.7,29.92,North,0,0.0,0.0,33,0.00,,,0.00,WUHU21623XXSP,2013-04-09 16:18:00,
2013-04-09 09:23:00,56.1,27.2,29.93,North,0,0.0,0.0,33,0.00,,,0.00,WUHU21623XXSP,2013-04-09 16:23:00,
2013-04-09 09:28:00,56.8,27.8,29.92,North,0,0.0,0.0,33,0.00,,,0.00,WUHU21623XXSP,2013-04-09 16:28:00,
2013-04-09 09:33:00,57.0,27.3,29.92,North,0,0.0,0.0,32,0.00,,,0.00,WUHU21623XXSP,2013-04-09 16:33:00,
2013-04-09 09:38:00,56.8,27.1,29.92,North,0,0.0,0.0,32,0.00,,,0.00,WUHU21623XXSP,2013-04-09 16:38:00,
2013-04-09 09:43:00,56.8,27.8,29.92,North,0,0.0,0.0,33,0.00,,,0.00,WUHU21623XXSP,2013-04-09 16:43:00,
2013-04-09 09:48:00,57.0,28.0,29.92,North,0,0.0,0.0,33,0.00,,,0.00,WUHU21623XXSP,2013-04-09 16:48:00,
2013-04-09 09:53:00,57.7,27.2,29.92,North,0,0.0,0.0,31,0.00,,,0.00,WUHU21623XXSP,2013-04-09 16:53:00,
2013-04-09 09:58:00,57.9,27.4,29.92,North,0,0.0,0.0,31,0.00,,,0.00,WUHU21623XXSP,2013-04-09 16:58:00,
2013-04-09 10:03:00,58.8,27.5,29.92,North,0,0.0,0.0,30,0.00,,,0.00,WUHU21623XXSP,2013-04-09 17:03:00,
2013-04-09 10:08:00,58.8,27.5,29.92,North,0,0.0,0.0,30,0.00,,,0.00,WUHU21623XXSP,2013-04-09 17:08:00,
2013-04-09 10:13:00,58.8,26.5,29.91,North,0,0.0,0.0,29,0.00,,,0.00,WUHU21623XXSP,2013-04-09 17:13:00,
2013-04-09 10:18:00,58.8,26.5,29.92,North,0,0.0,0.0,29,0.00,,,0.00,WUHU21623XXSP,2013-04-09 17:18:00,
2013-04-09 10:23:00,58.8,28.2,29.92,North,0,0.0,0.0,31,0.00,,,0.00,WUHU21623XXSP,2013-04-09 17:23:00,
2013-04-09 10:28:00,60.6,28.3,29.93,North,0,0.0,0.0,30,0.00,,,0.00,WUHU21623XXSP,2013-04-09 17:28:00,
2013-04-09 10:33:00,61.0,26.4,29.93,North,0,0.0,0.0,28,0.00,,,0.00,WUHU21623XXSP,2013-04-09 17:33:00,
2013-04-09 10:38:00,61.7,29.0,29.93,North,0,0.0,0.0,29,0.00,,,0.00,WUHU21623XXSP,2013-04-09 17:38:00,
2013-04-09 10:43:00,62.4,27.7,29.93,North,0,0.0,0.0,28,0.00,,,0.00,WUHU21623XXSP,2013-04-09 17:43:00,
2013-04-09 10:48:00,63.0,29.1,29.92,North,0,0.0,0.0,28,0.00,,,0.00,WUHU21623XXSP,2013-04-09 17:48:00,
2013-04-09 10:53:00,63.1,30.2,29.93,North,0,0.0,0.0,29,0.00,,,0.00,WUHU21623XXSP,2013-04-09 17:53:00,
2013-04-09 10:59:00,63.7,28.4,29.93,North,0,0.0,0.0,27,0.00,,,0.00,WUHU21623XXSP,2013-04-09 17:59:00,
2013-04-09 11:04:00,64.0,27.1,29.93,North,0,0.0,0.0,25,0.00,,,0.00,WUHU21623XXSP,2013-04-09 18:04:00,
2013-04-09 11:09:00,64.0,28.1,29.93,North,0,0.0,0.0,26,0.00,,,0.00,WUHU21623XXSP,2013-04-09 18:09:00,
2013-04-09 11:14:00,64.4,29.4,29.93,North,0,0.0,0.0,27,0.00,,,0.00,WUHU21623XXSP,2013-04-09 18:14:00,
2013-04-09 11:20:00,65.1,29.0,29.93,North,0,0.0,0.0,24,0.00,,,0.00,WUHU21623XXSP,2013-04-09 18:20:00,
2013-04-09 11:25:00,64.9,28.9,29.93,North,0,0.0,0.0,26,0.00,,,0.00,WUHU21623XXSP,2013-04-09 18:25:00,
2013-04-09 11:30:00,65.3,27.2,29.92,North,0,0.0,0.0,24,0.00,,,0.00,WUHU21623XXSP,2013-04-09 18:30:00,
2013-04-09 11:35:00,65.5,29.3,29.92,North,0,0.0,0.0,26,0.00,,,0.00,WUHU21623XXSP,2013-04-09 18:35:00,
2013-04-09 11:40:00,66.0,27.8,29.93,North,0,0.0,0.0,24,0.00,,,0.00,WUHU21623XXSP,2013-04-09 18:40:00,
2013-04-09 11:45:00,66.0,28.8,29.92,North,0,0.0,0.0,25,0.00,,,0.00,WUHU21623XXSP,2013-04-09 18:45:00,
2013-04-09 11:50:00,66.2,28.8,29.92,North,0,0.0,0.0,24,0.00,,,0.00,WUHU21623XXSP,2013-04-09 18:50:00,
2013-04-09 11:55:00,66.4,28.1,29.92,North,0,0.0,0.0,24,0.00,,,0.00,WUHU21623XXSP,2013-04-09 18:55:00,
2013-04-09 12:00:00,66.7,27.4,29.92,North,0,0.0,0.0,23,0.00,,,0.00,WUHU21623XXSP,2013-04-09 19:00:00,
2013-04-09 12:05:00,66.9,26.5,29.92,North,0,0.0,0.0,22,0.00,,,0.00,WUHU21623XXSP,2013-04-09 19:05:00,
2013-04-09 12:10:00,66.9,26.5,29.92,North,0,0.0,0.0,22,0.00,,,0.00,WUHU21623XXSP,2013-04-09 19:10:00,
2013-04-09 12:15:00,66.9,27.5,29.92,North,0,0.0,0.0,23,0.00,,,0.00,WUHU21623XXSP,2013-04-09 19:15:00,
2013-04-09 12:20:00,67.3,27.5,29.92,North,0,0.0,0.0,23,0.00,,,0.00,WUHU21623XXSP,2013-04-09 19:20:00,
2013-04-09 12:25:00,67.3,26.9,29.91,North,0,0.0,0.0,22,0.00,,,0.00,WUHU21623XXSP,2013-04-09 19:25:00,
2013-04-09 12:30:00,67.6,27.2,29.93,North,0,0.0,0.0,22,0.00,,,0.00,WUHU21623XXSP,2013-04-09 19:30:00,
2013-04-09 12:35:00,67.6,27.2,29.92,North,0,0.0,0.0,22,0.00,,,0.00,WUHU21623XXSP,2013-04-09 19:35:00,
2013-04-09 12:40:00,67.8,28.3,29.92,North,0,0.0,0.0,23,0.00,,,0.00,WUHU21623XXSP,2013-04-09 19:40:00,
2013-04-09 12:45:00,67.8,26.3,29.92,North,0,0.0,0.0,21,0.00,,,0.00,WUHU21623XXSP,2013-04-09 19:45:00,
2013-04-09 12:50:00,67.8,27.3,29.93,North,0,0.0,0.0,22,0.00,,,0.00,WUHU21623XXSP,2013-04-09 19:50:00,
2013-04-09 12:55:00,68.2,27.6,29.92,North,0,0.0,0.0,22,0.00,,,0.00,WUHU21623XXSP,2013-04-09 19:55:00,
2013-04-09 13:00:00,68.4,26.8,29.92,North,0,0.0,0.0,21,0.00,,,0.00,WUHU21623XXSP,2013-04-09 20:00:00,
2013-04-09 13:05:00,68.5,26.0,29.92,North,0,0.0,0.0,20,0.00,,,0.00,WUHU21623XXSP,2013-04-09 20:05:00,
2013-04-09 13:10:00,68.5,28.9,29.92,North,0,0.0,0.0,23,0.00,,,0.00,WUHU21623XXSP,2013-04-09 20:10:00,
2013-04-09 13:15:00,68.7,28.1,29.91,North,0,0.0,0.0,22,0.00,,,0.00,WUHU21623XXSP,2013-04-09 20:15:00,
2013-04-09 13:20:00,68.7,26.1,29.92,North,0,0.0,0.0,20,0.00,,,0.00,WUHU21623XXSP,2013-04-09 20:20:00,
2013-04-09 13:25:00,68.7,26.1,29.91,North,0,0.0,0.0,22,0.00,,,0.00,WUHU21623XXSP,2013-04-09 20:25:00,
2013-04-09 13:30:00,68.9,24.6,29.92,North,0,0.0,0.0,19,0.00,,,0.00,WUHU21623XXSP,2013-04-09 20:30:00,
2013-04-09 13:35:00,68.7,24.5,29.92,North,0,0.0,0.0,19,0.00,,,0.00,WUHU21623XXSP,2013-04-09 20:35:00,
2013-04-09 13:40:00,68.4,25.8,29.92,North,0,0.0,0.0,20,0.00,,,0.00,WUHU21623XXSP,2013-04-09 20:40:00,
2013-04-09 13:45:00,68.5,26.0,29.91,North,0,0.0,0.0,20,0.00,,,0.00,WUHU21623XXSP,2013-04-09 20:45:00,
2013-04-09 13:50:00,68.5,26.1,29.91,North,0,0.0,0.0,18,0.00,,,0.00,WUHU21623XXSP,2013-04-09 20:50:00,
2013-04-09 13:55:00,68.7,24.5,29.91,North,0,0.0,0.0,19,0.00,,,0.00,WUHU21623XXSP,2013-04-09 20:55:00,
2013-04-09 14:00:00,68.9,26.2,29.91,North,0,0.0,0.0,20,0.00,,,0.00,WUHU21623XXSP,2013-04-09 21:00:00,
2013-04-09 14:05:00,69.4,26.4,29.91,North,0,0.0,0.0,21,0.00,,,0.00,WUHU21623XXSP,2013-04-09 21:05:00,
2013-04-09 14:10:00,69.3,23.3,29.91,North,0,0.0,0.0,18,0.00,,,0.00,WUHU21623XXSP,2013-04-09 21:10:00,
2013-04-09 14:15:00,69.3,23.3,29.91,North,0,0.0,0.0,18,0.00,,,0.00,WUHU21623XXSP,2013-04-09 21:15:00,
2013-04-09 14:20:00,69.4,23.4,29.91,North,0,0.0,0.0,18,0.00,,,0.00,WUHU21623XXSP,2013-04-09 21:20:00,
2013-04-09 14:25:00,69.4,23.4,29.91,North,0,0.0,0.0,18,0.00,,,0.00,WUHU21623XXSP,2013-04-09 21:25:00,
2013-04-09 14:30:00,69.4,21.8,29.91,North,0,0.0,0.0,17,0.00,,,0.00,WUHU21623XXSP,2013-04-09 21:30:00,
2013-04-09 14:35:00,69.6,23.6,29.91,North,0,0.0,0.0,18,0.00,,,0.00,WUHU21623XXSP,2013-04-09 21:35:00,
2013-04-09 14:40:00,69.8,23.6,29.91,North,0,0.0,0.0,17,0.00,,,0.00,WUHU21623XXSP,2013-04-09 21:40:00,
2013-04-09 14:45:00,69.6,25.2,29.91,North,0,0.0,0.0,19,0.00,,,0.00,WUHU21623XXSP,2013-04-09 21:45:00,
2013-04-09 14:50:00,70.0,25.2,29.91,North,0,0.0,0.0,18,0.00,,,0.00,WUHU21623XXSP,2013-04-09 21:50:00,
2013-04-09 14:55:00,69.6,23.6,29.91,North,0,0.0,0.0,18,0.00,,,0.00,WUHU21623XXSP,2013-04-09 21:55:00,
2013-04-09 15:00:00,69.6,22.0,29.91,North,0,0.0,0.0,17,0.00,,,0.00,WUHU21623XXSP,2013-04-09 22:00:00,
2013-04-09 15:05:00,69.8,23.6,29.91,North,0,0.0,0.0,17,0.00,,,0.00,WUHU21623XXSP,2013-04-09 22:05:00,
2013-04-09 15:10:00,69.6,22.0,29.91,North,0,0.0,0.0,17,0.00,,,0.00,WUHU21623XXSP,2013-04-09 22:10:00,
2013-04-09 15:15:00,70.2,22.4,29.91,North,0,0.0,0.0,17,0.00,,,0.00,WUHU21623XXSP,2013-04-09 22:15:00,
2013-04-09 15:21:00,70.2,20.8,29.91,North,0,0.0,0.0,16,0.00,,,0.00,WUHU21623XXSP,2013-04-09 22:21:00,
2013-04-09 15:26:00,70.2,22.4,29.91,North,0,0.0,0.0,17,0.00,,,0.00,WUHU21623XXSP,2013-04-09 22:26:00,
2013-04-09 15:31:00,70.3,22.5,29.91,North,0,0.0,0.0,17,0.00,,,0.00,WUHU21623XXSP,2013-04-09 22:31:00,
2013-04-09 15:36:00,70.2,20.8,29.91,North,0,0.0,0.0,16,0.00,,,0.00,WUHU21623XXSP,2013-04-09 22:36:00,
2013-04-09 15:41:00,70.0,22.2,29.90,North,0,0.0,0.0,16,0.00,,,0.00,WUHU21623XXSP,2013-04-09 22:41:00,
2013-04-09 15:46:00,70.0,23.9,29.91,North,0,0.0,0.0,15,0.00,,,0.00,WUHU21623XXSP,2013-04-09 22:46:00,
2013-04-09 15:51:00,69.6,20.3,29.90,North,0,0.0,0.0,16,0.00,,,0.00,WUHU21623XXSP,2013-04-09 22:51:00,
2013-04-09 15:56:00,69.8,20.5,29.90,North,0,0.0,0.0,16,0.00,,,0.00,WUHU21623XXSP,2013-04-09 22:56:00,
2013-04-09 16:01:00,69.6,20.3,29.90,North,0,0.0,0.0,16,0.00,,,0.00,WUHU21623XXSP,2013-04-09 23:01:00,
2013-04-09 16:06:00,69.6,20.3,29.90,North,0,0.0,0.0,16,0.00,,,0.00,WUHU21623XXSP,2013-04-09 23:06:00,
2013-04-09 16:11:00,69.8,20.6,29.90,North,0,0.0,0.0,16,0.00,,,0.00,WUHU21623XXSP,2013-04-09 23:11:00,
2013-04-09 16:16:00,70.0,20.6,29.90,North,0,0.0,0.0,16,0.00,,,0.00,WUHU21623XXSP,2013-04-09 23:16:00,
2013-04-09 16:21:00,70.0,20.6,29.90,North,0,0.0,0.0,16,0.00,,,0.00,WUHU21623XXSP,2013-04-09 23:21:00,
2013-04-09 16:26:00,70.0,20.6,29.90,North,0,0.0,0.0,16,0.00,,,0.00,WUHU21623XXSP,2013-04-09 23:26:00,
2013-04-09 16:31:00,70.0,22.2,29.90,North,0,0.0,0.0,17,0.00,,,0.00,WUHU21623XXSP,2013-04-09 23:31:00,
2013-04-09 16:36:00,70.0,19.0,29.89,North,0,0.0,0.0,15,0.00,,,0.00,WUHU21623XXSP,2013-04-09 23:36:00,
2013-04-09 16:41:00,70.0,20.8,29.90,North,0,0.0,0.0,13,0.00,,,0.00,WUHU21623XXSP,2013-04-09 23:41:00,
2013-04-09 16:46:00,70.0,17.4,29.90,North,0,0.0,0.0,14,0.00,,,0.00,WUHU21623XXSP,2013-04-09 23:46:00,
2013-04-09 16:51:00,70.0,19.0,29.90,North,0,0.0,0.0,15,0.00,,,0.00,WUHU21623XXSP,2013-04-09 23:51:00,
2013-04-09 16:56:00,69.8,20.5,29.91,North,0,0.0,0.0,16,0.00,,,0.00,WUHU21623XXSP,2013-04-09 23:56:00,
2013-04-09 17:01:00,69.8,18.9,29.91,North,0,0.0,0.0,15,0.00,,,0.00,WUHU21623XXSP,2013-04-10 00:01:00,
2013-04-09 17:06:00,69.6,18.7,29.91,North,0,0.0,0.0,15,0.00,,,0.00,WUHU21623XXSP,2013-04-10 00:06:00,
2013-04-09 17:11:00,69.1,16.7,29.91,North,0,0.0,0.0,14,0.00,,,0.00,WUHU21623XXSP,2013-04-10 00:11:00,
2013-04-09 17:16:00,69.1,15.1,29.91,North,0,0.0,0.0,14,0.00,,,0.00,WUHU21623XXSP,2013-04-10 00:16:00,
2013-04-09 17:21:00,69.1,18.3,29.91,North,0,0.0,0.0,15,0.00,,,0.00,WUHU21623XXSP,2013-04-10 00:21:00,
2013-04-09 17:26:00,69.1,16.7,29.91,North,0,0.0,0.0,14,0.00,,,0.00,WUHU21623XXSP,2013-04-10 00:26:00,
2013-04-09 17:31:00,68.7,16.4,29.92,North,0,0.0,0.0,14,0.00,,,0.00,WUHU21623XXSP,2013-04-10 00:31:00,
2013-04-09 17:36:00,68.5,14.7,29.91,North,0,0.0,0.0,13,0.00,,,0.00,WUHU21623XXSP,2013-04-10 00:36:00,
2013-04-09 17:41:00,68.7,14.7,29.92,North,0,0.0,0.0,13,0.00,,,0.00,WUHU21623XXSP,2013-04-10 00:41:00,
2013-04-09 17:46:00,68.4,14.6,29.91,North,0,0.0,0.0,13,0.00,,,0.00,WUHU21623XXSP,2013-04-10 00:46:00,
2013-04-09 17:51:00,68.2,14.4,29.91,North,0,0.0,0.0,13,0.00,,,0.00,WUHU21623XXSP,2013-04-10 00:51:00,
2013-04-09 17:56:00,68.2,12.8,29.92,North,0,0.0,0.0,12,0.00,,,0.00,WUHU21623XXSP,2013-04-10 00:56:00,
2013-04-09 18:01:00,68.2,14.4,29.93,North,0,0.0,0.0,13,0.00,,,0.00,WUHU21623XXSP,2013-04-10 01:01:00,
2013-04-09 18:06:00,67.5,27.2,29.93,North,0,0.0,0.0,22,0.00,,,0.00,WUHU21623XXSP,2013-04-10 01:06:00,
2013-04-09 18:11:00,66.7,28.4,29.93,North,0,0.0,0.0,24,0.00,,,0.00,WUHU21623XXSP,2013-04-10 01:11:00,
2013-04-09 18:16:00,66.4,28.1,29.93,North,0,0.0,0.0,24,0.00,,,0.00,WUHU21623XXSP,2013-04-10 01:16:00,
2013-04-09 18:21:00,66.0,28.8,29.93,North,0,0.0,0.0,25,0.00,,,0.00,WUHU21623XXSP,2013-04-10 01:21:00,
2013-04-09 18:26:00,65.5,29.3,29.93,North,0,0.0,0.0,26,0.00,,,0.00,WUHU21623XXSP,2013-04-10 01:26:00,
2013-04-09 18:31:00,64.6,28.5,29.93,North,0,0.0,0.0,26,0.00,,,0.00,WUHU21623XXSP,2013-04-10 01:31:00,
2013-04-09 18:37:00,64.2,29.2,29.93,North,0,0.0,0.0,27,0.00,,,0.00,WUHU21623XXSP,2013-04-10 01:37:00,
2013-04-09 18:42:00,63.5,28.8,29.93,North,0,0.0,0.0,27,0.00,,,0.00,WUHU21623XXSP,2013-04-10 01:42:00,
2013-04-09 18:47:00,62.4,29.6,29.94,North,0,0.0,0.0,29,0.00,,,0.00,WUHU21623XXSP,2013-04-10 01:47:00,
2013-04-09 18:52:00,61.9,29.4,29.94,North,0,0.0,0.0,29,0.00,,,0.00,WUHU21623XXSP,2013-04-10 01:52:00,
2013-04-09 18:57:00,61.3,29.6,29.94,North,0,0.0,0.0,30,0.00,,,0.00,WUHU21623XXSP,2013-04-10 01:57:00,
2013-04-09 19:02:00,60.6,29.7,29.94,North,0,0.0,0.0,31,0.00,,,0.00,WUHU21623XXSP,2013-04-10 02:02:00,
2013-04-09 19:07:00,60.1,29.5,29.94,North,0,0.0,0.0,31,0.00,,,0.00,WUHU21623XXSP,2013-04-10 02:07:00,
2013-04-09 19:12:00,59.4,28.8,29.94,North,0,0.0,0.0,31,0.00,,,0.00,WUHU21623XXSP,2013-04-10 02:12:00,
2013-04-09 19:17:00,58.8,28.9,29.95,North,0,0.0,0.0,32,0.00,,,0.00,WUHU21623XXSP,2013-04-10 02:17:00,
2013-04-09 19:22:00,58.6,28.1,29.95,North,0,0.0,0.0,31,0.00,,,0.00,WUHU21623XXSP,2013-04-10 02:22:00,
2013-04-09 19:27:00,58.1,27.6,29.95,North,0,0.0,0.0,31,0.00,,,0.00,WUHU21623XXSP,2013-04-10 02:27:00,
2013-04-09 19:32:00,57.7,27.9,29.95,North,0,0.0,0.0,32,0.00,,,0.00,WUHU21623XXSP,2013-04-10 02:32:00,
2013-04-09 19:37:00,57.4,27.6,29.96,North,0,0.0,0.0,32,0.00,,,0.00,WUHU21623XXSP,2013-04-10 02:37:00,
2013-04-09 19:42:00,56.8,27.1,29.96,North,0,0.0,0.0,32,0.00,,,0.00,WUHU21623XXSP,2013-04-10 02:42:00,
2013-04-09 19:47:00,56.5,27.1,29.97,North,0,0.0,0.0,32,0.00,,,0.00,WUHU21623XXSP,2013-04-10 02:47:00,
2013-04-09 19:52:00,56.1,26.5,29.97,North,0,0.0,0.0,32,0.00,,,0.00,WUHU21623XXSP,2013-04-10 02:52:00,
2013-04-09 19:57:00,55.2,26.4,29.97,North,0,0.0,0.0,33,0.00,,,0.00,WUHU21623XXSP,2013-04-10 02:57:00,
2013-04-09 20:02:00,54.9,26.8,29.98,North,0,0.0,0.0,34,0.00,,,0.00,WUHU21623XXSP,2013-04-10 03:02:00,
2013-04-09 20:07:00,54.3,26.3,29.99,North,0,0.0,0.0,34,0.00,,,0.00,WUHU21623XXSP,2013-04-10 03:07:00,
2013-04-09 20:12:00,53.4,26.3,29.99,North,0,0.0,0.0,35,0.00,,,0.00,WUHU21623XXSP,2013-04-10 03:12:00,
2013-04-09 20:17:00,53.2,26.1,29.99,North,0,0.0,0.0,35,0.00,,,0.00,WUHU21623XXSP,2013-04-10 03:17:00,
2013-04-09 20:22:00,52.7,26.5,30.00,North,0,0.0,0.0,36,0.00,,,0.00,WUHU21623XXSP,2013-04-10 03:22:00,
2013-04-09 20:27:00,51.8,27.5,30.00,North,0,0.0,0.0,39,0.00,,,0.00,WUHU21623XXSP,2013-04-10 03:27:00,
2013-04-09 20:32:00,51.4,27.9,30.00,North,0,0.0,0.0,40,0.00,,,0.00,WUHU21623XXSP,2013-04-10 03:32:00,
2013-04-09 20:37:00,50.9,27.6,30.00,North,0,0.0,0.0,41,0.00,,,0.00,WUHU21623XXSP,2013-04-10 03:37:00,
2013-04-09 20:42:00,50.2,27.9,30.01,North,0,0.0,0.0,42,0.00,,,0.00,WUHU21623XXSP,2013-04-10 03:42:00,
2013-04-09 20:47:00,49.8,28.1,30.01,North,0,0.0,0.0,43,0.00,,,0.00,WUHU21623XXSP,2013-04-10 03:47:00,
2013-04-09 20:52:00,49.6,28.5,30.01,North,0,0.0,0.0,44,0.00,,,0.00,WUHU21623XXSP,2013-04-10 03:52:00,
2013-04-09 20:57:00,48.9,28.7,30.01,North,0,0.0,0.0,46,0.00,,,0.00,WUHU21623XXSP,2013-04-10 03:57:00,
2013-04-09 21:02:00,48.7,28.7,30.02,North,0,0.0,0.0,46,0.00,,,0.00,WUHU21623XXSP,2013-04-10 04:02:00,
2013-04-09 21:07:00,48.6,29.1,30.02,North,0,0.0,0.0,47,0.00,,,0.00,WUHU21623XXSP,2013-04-10 04:07:00,
2013-04-09 21:12:00,48.7,29.1,30.02,North,0,0.0,0.0,47,0.00,,,0.00,WUHU21623XXSP,2013-04-10 04:12:00,
2013-04-09 21:17:00,48.9,29.4,30.02,North,0,0.0,0.0,47,0.00,,,0.00,WUHU21623XXSP,2013-04-10 04:17:00,
2013-04-09 21:22:00,48.9,29.4,30.02,North,0,0.0,0.0,47,0.00,,,0.00,WUHU21623XXSP,2013-04-10 04:22:00,
2013-04-09 21:27:00,49.3,29.6,30.02,North,0,0.0,0.0,46,0.00,,,0.00,WUHU21623XXSP,2013-04-10 04:27:00,
2013-04-09 21:32:00,49.1,29.1,30.03,North,0,0.0,0.0,46,0.00,,,0.00,WUHU21623XXSP,2013-04-10 04:32:00,
2013-04-09 21:37:00,49.1,29.6,30.03,North,0,0.0,0.0,47,0.00,,,0.00,WUHU21623XXSP,2013-04-10 04:37:00,
2013-04-09 21:42:00,48.9,29.4,30.03,North,0,0.0,0.0,47,0.00,,,0.00,WUHU21623XXSP,2013-04-10 04:42:00,
2013-04-09 21:47:00,48.9,29.4,30.03,North,0,0.0,0.0,47,0.00,,,0.00,WUHU21623XXSP,2013-04-10 04:47:00,
2013-04-09 21:52:00,48.9,29.4,30.04,North,0,0.0,0.0,47,0.00,,,0.00,WUHU21623XXSP,2013-04-10 04:52:00,
2013-04-09 21:57:00,48.4,29.1,30.04,North,0,0.0,0.0,47,0.00,,,0.00,WUHU21623XXSP,2013-04-10 04:57:00,
2013-04-09 22:02:00,48.0,29.1,30.04,North,0,0.0,0.0,48,0.00,,,0.00,WUHU21623XXSP,2013-04-10 05:02:00,
2013-04-09 22:07:00,47.8,29.1,30.04,North,0,0.0,0.0,48,0.00,,,0.00,WUHU21623XXSP,2013-04-10 05:07:00,
2013-04-09 22:12:00,47.7,29.5,30.04,North,0,0.0,0.0,49,0.00,,,0.00,WUHU21623XXSP,2013-04-10 05:12:00,
2013-04-09 22:17:00,47.3,29.6,30.04,North,0,0.0,0.0,50,0.00,,,0.00,WUHU21623XXSP,2013-04-10 05:17:00,
2013-04-09 22:22:00,47.1,29.4,30.04,North,0,0.0,0.0,50,0.00,,,0.00,WUHU21623XXSP,2013-04-10 05:22:00,
2013-04-09 22:27:00,46.6,29.4,30.04,North,0,0.0,0.0,51,0.00,,,0.00,WUHU21623XXSP,2013-04-10 05:27:00,
2013-04-09 22:32:00,46.4,29.7,30.05,North,0,0.0,0.0,52,0.00,,,0.00,WUHU21623XXSP,2013-04-10 05:32:00,
2013-04-09 22:38:00,46.0,29.8,30.04,North,0,0.0,0.0,53,0.00,,,0.00,WUHU21623XXSP,2013-04-10 05:38:00,
2013-04-09 22:43:00,46.2,29.9,30.05,North,0,0.0,0.0,53,0.00,,,0.00,WUHU21623XXSP,2013-04-10 05:43:00,
2013-04-09 22:48:00,46.0,29.8,30.05,North,0,0.0,0.0,53,0.00,,,0.00,WUHU21623XXSP,2013-04-10 05:48:00,
2013-04-09 22:53:00,46.0,29.9,30.05,North,0,0.0,0.0,53,0.00,,,0.00,WUHU21623XXSP,2013-04-10 05:53:00,
2013-04-09 22:58:00,45.7,30.1,30.05,North,0,0.0,0.0,54,0.00,,,0.00,WUHU21623XXSP,2013-04-10 05:58:00,
2013-04-09 23:03:00,45.3,29.8,30.06,North,0,0.0,0.0,54,0.00,,,0.00,WUHU21623XXSP,2013-04-10 06:03:00,
2013-04-09 23:08:00,45.1,29.4,30.05,North,0,0.0,0.0,54,0.00,,,0.00,WUHU21623XXSP,2013-04-10 06:08:00,
2013-04-09 23:13:00,45.1,29.9,30.05,North,0,0.0,0.0,55,0.00,,,0.00,WUHU21623XXSP,2013-04-10 06:13:00,
2013-04-09 23:18:00,45.3,30.0,30.05,North,0,0.0,0.0,55,0.00,,,0.00,WUHU21623XXSP,2013-04-10 06:18:00,
2013-04-09 23:23:00,45.3,29.9,30.05,North,0,0.0,0.0,56,0.00,,,0.00,WUHU21623XXSP,2013-04-10 06:23:00,
2013-04-09 23:28:00,45.1,30.3,30.06,North,0,0.0,0.0,56,0.00,,,0.00,WUHU21623XXSP,2013-04-10 06:28:00,
2013-04-09 23:33:00,45.3,30.3,30.06,North,0,0.0,0.0,55,0.00,,,0.00,WUHU21623XXSP,2013-04-10 06:33:00,
2013-04-09 23:38:00,45.1,30.3,30.06,North,0,0.0,0.0,56,0.00,,,0.00,WUHU21623XXSP,2013-04-10 06:38:00,
2013-04-09 23:43:00,45.0,30.2,30.07,North,0,0.0,0.0,56,0.00,,,0.00,WUHU21623XXSP,2013-04-10 06:43:00,
2013-04-09 23:48:00,45.0,30.2,30.06,North,0,0.0,0.0,56,0.00,,,0.00,WUHU21623XXSP,2013-04-10 06:48:00,
2013-04-09 23:53:00,45.1,30.3,30.06,North,0,0.0,0.0,56,0.00,,,0.00,WUHU21623XXSP,2013-04-10 06:53:00,
2013-04-09 23:58:00,45.0,30.2,30.06,North,0,0.0,0.0,56,0.00,,,0.00,WUHU21623XXSP,2013-04-10 06:58:00,